Time;durP1;ratioP1;P1;durP2;ratioP2;P2;SDS_P1;SDS_P2;PMS_P1;PMS_P2;Temp;Humidity;BMP_temperature;BMP_pressure;BME280_temperature;BME280_humidity;BME280_pressure;Samples;Min_cycle;Max_cycle;Signal;HPM_P1;HPM_P2
2023/02/10 00:01:09;;;;;;;61.20;30.65;;;1.80;99.90;;;;;;7372420;19;20018;-59
2023/02/10 00:03:36;;;;;;;58.65;31.40;;;1.80;99.90;;;;;;7370599;19;20025;-59
2023/02/10 00:06:03;;;;;;;60.65;32.92;;;1.80;99.90;;;;;;7370407;19;20131;-59
2023/02/10 00:08:30;;;;;;;51.40;29.80;;;1.80;99.90;;;;;;7370504;19;20902;-59
2023/02/10 00:11:01;;;;;;;52.25;30.10;;;1.90;99.90;;;;;;7367804;19;20093;-62
2023/02/10 00:13:28;;;;;;;58.40;30.30;;;1.90;99.90;;;;;;7372070;19;20033;-62
2023/02/10 00:15:57;;;;;;;54.45;27.73;;;1.90;99.90;;;;;;7370028;19;20044;-62
2023/02/10 00:18:24;;;;;;;50.20;27.70;;;1.80;99.90;;;;;;7373504;19;20794;-61
2023/02/10 00:20:51;;;;;;;50.72;27.85;;;1.90;99.90;;;;;;7372725;19;20497;-61
2023/02/10 00:23:17;;;;;;;48.05;27.60;;;1.80;99.90;;;;;;7370630;19;20038;-61
2023/02/10 00:25:43;;;;;;;50.10;26.77;;;1.80;99.90;;;;;;7370145;19;20022;-61
2023/02/10 00:28:09;;;;;;;42.72;25.73;;;1.90;99.90;;;;;;7369803;19;20506;-61
2023/02/10 00:30:37;;;;;;;55.72;26.58;;;1.90;99.90;;;;;;7372957;19;20022;-61
2023/02/10 00:33:03;;;;;;;48.47;26.58;;;1.90;99.90;;;;;;7370072;19;20044;-61
2023/02/10 00:35:31;;;;;;;51.00;27.05;;;1.90;99.90;;;;;;7374676;19;20765;-61
2023/02/10 00:37:58;;;;;;;45.03;25.35;;;1.80;99.90;;;;;;7371654;19;20018;-61
2023/02/10 00:40:24;;;;;;;39.38;24.00;;;1.80;99.90;;;;;;7371671;19;20018;-61
2023/02/10 00:42:52;;;;;;;42.63;24.60;;;1.80;99.90;;;;;;7371723;19;20500;-61
2023/02/10 00:45:18;;;;;;;44.38;24.98;;;1.70;99.90;;;;;;7374416;19;20756;-60
2023/02/10 00:47:46;;;;;;;45.63;23.98;;;1.70;99.90;;;;;;7368519;19;20021;-61
2023/02/10 00:50:12;;;;;;;39.42;23.83;;;1.70;99.90;;;;;;7371925;19;20014;-61
2023/02/10 00:52:38;;;;;;;53.10;26.27;;;1.70;99.90;;;;;;7371017;19;20022;-61
2023/02/10 00:55:05;;;;;;;51.38;25.15;;;1.70;99.90;;;;;;7368409;19;20033;-61
2023/02/10 00:57:31;;;;;;;42.03;23.38;;;1.70;99.90;;;;;;7369955;19;20022;-58
2023/02/10 00:59:57;;;;;;;51.40;26.05;;;1.70;99.90;;;;;;7368087;19;20030;-58
2023/02/10 01:02:23;;;;;;;44.90;23.65;;;1.60;99.90;;;;;;7373462;19;20022;-58
2023/02/10 01:04:50;;;;;;;45.58;23.70;;;1.60;99.90;;;;;;7367922;19;20010;-58
2023/02/10 01:07:16;;;;;;;46.45;24.70;;;1.60;99.90;;;;;;7370617;19;20026;-59
2023/02/10 01:09:42;;;;;;;44.17;25.15;;;1.70;99.90;;;;;;7371047;19;20049;-58
2023/02/10 01:12:09;;;;;;;43.22;23.90;;;1.60;99.90;;;;;;7371735;19;20584;-58
2023/02/10 01:14:35;;;;;;;50.35;24.95;;;1.60;99.90;;;;;;7371964;19;20059;-58
2023/02/10 01:17:01;;;;;;;51.08;26.05;;;1.60;99.90;;;;;;7370678;19;20023;-59
2023/02/10 01:19:28;;;;;;;51.03;24.80;;;1.70;99.90;;;;;;7370311;19;20086;-59
2023/02/10 01:21:54;;;;;;;52.97;25.70;;;1.60;99.90;;;;;;7369492;19;20655;-59
2023/02/10 01:24:20;;;;;;;49.15;24.77;;;1.60;99.90;;;;;;7369408;19;20051;-58
2023/02/10 01:26:47;;;;;;;38.70;24.50;;;1.60;99.90;;;;;;7370865;19;20026;-57
2023/02/10 01:29:13;;;;;;;47.67;25.35;;;1.60;99.90;;;;;;7371898;19;20025;-59
2023/02/10 01:31:39;;;;;;;45.50;26.13;;;1.60;99.90;;;;;;7367173;19;20022;-59
2023/02/10 01:34:06;;;;;;;54.90;25.00;;;1.60;99.90;;;;;;7367418;19;20022;-58
2023/02/10 01:36:32;;;;;;;47.55;23.60;;;1.60;99.90;;;;;;7367069;19;20023;-59
2023/02/10 01:38:59;;;;;;;45.20;25.65;;;1.60;99.90;;;;;;7368915;19;20023;-59
2023/02/10 01:41:25;;;;;;;43.75;25.42;;;1.60;99.90;;;;;;7372795;19;20050;-60
2023/02/10 01:44:00;;;;;;;41.90;25.17;;;1.60;99.90;;;;;;7368675;19;20014;-58
2023/02/10 01:46:28;;;;;;;44.67;25.25;;;1.60;99.90;;;;;;7369567;19;20041;-59
2023/02/10 01:48:58;;;;;;;47.35;24.70;;;1.60;99.90;;;;;;7372365;19;20025;-58
2023/02/10 01:51:40;;;;;;;43.60;25.25;;;1.60;99.90;;;;;;7370192;19;20015;-59
2023/02/10 01:54:12;;;;;;;43.92;23.75;;;1.60;99.90;;;;;;7366515;19;20397;-59
2023/02/10 01:56:39;;;;;;;;;;;1.50;99.90;;;;;;7371234;19;20022;-59
2023/02/10 01:59:06;;;;;;;41.38;22.98;;;1.60;99.90;;;;;;7366866;19;19926;-61
2023/02/10 02:01:32;;;;;;;48.03;25.25;;;1.60;99.90;;;;;;7367586;19;20018;-61
2023/02/10 02:04:00;;;;;;;45.50;24.63;;;1.60;99.90;;;;;;7362510;19;20026;-61
2023/02/10 02:06:26;;;;;;;42.85;23.50;;;1.50;99.90;;;;;;7368671;19;20040;-61
2023/02/10 02:08:52;;;;;;;46.20;24.73;;;1.50;99.90;;;;;;7368857;19;20026;-61
2023/02/10 02:11:25;;;;;;;45.03;23.17;;;1.50;99.90;;;;;;7373405;19;20089;-61
2023/02/10 02:14:04;;;;;;;43.78;22.50;;;1.50;99.90;;;;;;7376147;19;20022;-61
2023/02/10 02:17:02;;;;;;;40.88;23.27;;;1.50;99.90;;;;;;7377586;19;20030;-58
2023/02/10 02:19:52;;;;;;;38.60;22.35;;;1.40;99.90;;;;;;7375810;19;20018;-60
2023/02/10 02:23:04;;;;;;;39.90;21.85;;;1.40;99.90;;;;;;7377431;19;20461;-61
2023/02/10 02:25:41;;;;;;;42.67;23.90;;;1.40;99.90;;;;;;7372020;19;20015;-61
2023/02/10 02:28:33;;;;;;;38.35;22.27;;;1.40;99.90;;;;;;7370975;19;20026;-61
2023/02/10 02:31:37;;;;;;;42.90;22.75;;;1.40;99.90;;;;;;7374875;19;20019;-62
2023/02/10 02:34:17;;;;;;;44.88;23.30;;;1.40;99.90;;;;;;7374011;19;20026;-61
2023/02/10 02:37:06;;;;;;;40.78;22.63;;;1.40;99.90;;;;;;7375283;19;20027;-58
2023/02/10 02:39:34;;;;;;;46.25;23.00;;;1.40;99.90;;;;;;7369178;19;20893;-61
2023/02/10 02:42:33;;;;;;;46.28;23.90;;;1.40;99.90;;;;;;7375092;19;20018;-61
2023/02/10 02:45:10;;;;;;;36.58;23.48;;;1.50;99.90;;;;;;7370103;19;20023;-59
2023/02/10 02:47:58;;;;;;;51.50;24.67;;;1.40;99.90;;;;;;7373098;19;20057;-59
2023/02/10 02:50:36;;;;;;;47.90;24.55;;;1.40;99.90;;;;;;7375444;19;20097;-58
2023/02/10 02:53:26;;;;;;;48.15;23.67;;;1.40;99.90;;;;;;7366560;19;21385;-59
2023/02/10 02:56:01;;;;;;;40.85;21.73;;;1.40;99.90;;;;;;7371942;19;20019;-58
2023/02/10 02:58:43;;;;;;;39.28;22.60;;;1.30;99.90;;;;;;7372582;19;20472;-58
2023/02/10 03:01:15;;;;;;;39.20;21.92;;;1.40;99.90;;;;;;7371277;19;20015;-61
2023/02/10 03:03:42;;;;;;;;;;;1.40;99.90;;;;;;7374229;19;20513;-61
2023/02/10 03:06:08;;;;;;;48.75;23.23;;;1.40;99.90;;;;;;7373571;19;20445;-61
2023/02/10 03:08:38;;;;;;;47.85;25.27;;;1.30;99.90;;;;;;7373305;19;20018;-61
2023/02/10 03:11:04;;;;;;;45.10;24.67;;;1.40;99.90;;;;;;7372162;19;20698;-61
2023/02/10 03:13:30;;;;;;;43.40;24.60;;;1.30;99.90;;;;;;7370210;19;20014;-61
2023/02/10 03:15:59;;;;;;;43.97;23.65;;;1.30;99.90;;;;;;7367112;19;20030;-59
2023/02/10 03:18:26;;;;;;;47.95;25.90;;;1.40;99.90;;;;;;7375094;19;20015;-59
2023/02/10 03:20:52;;;;;;;48.95;26.73;;;1.40;99.90;;;;;;7369223;19;20477;-61
2023/02/10 03:23:18;;;;;;;45.53;24.77;;;1.50;99.90;;;;;;7370137;19;20648;-58
2023/02/10 03:25:45;;;;;;;44.17;24.70;;;1.40;99.90;;;;;;7371150;19;20082;-61
2023/02/10 03:28:11;;;;;;;44.03;24.65;;;1.40;99.90;;;;;;7370839;19;20018;-58
2023/02/10 03:30:38;;;;;;;52.92;26.42;;;1.40;99.90;;;;;;7371098;19;20018;-59
2023/02/10 03:33:05;;;;;;;43.33;22.95;;;1.30;99.90;;;;;;7370363;19;20468;-59
2023/02/10 03:35:36;;;;;;;44.25;24.52;;;1.30;99.90;;;;;;7371935;19;20056;-61
2023/02/10 03:38:02;;;;;;;54.10;25.52;;;1.30;99.90;;;;;;7370763;19;20014;-59
2023/02/10 03:40:29;;;;;;;46.10;23.95;;;1.30;99.90;;;;;;7371095;19;20070;-61
2023/02/10 03:42:55;;;;;;;47.42;24.08;;;1.30;99.90;;;;;;7368918;19;20026;-61
2023/02/10 03:45:21;;;;;;;40.72;22.80;;;1.30;99.90;;;;;;7374561;19;20018;-58
2023/02/10 03:47:48;;;;;;;41.28;24.80;;;1.30;99.90;;;;;;7370234;19;20041;-58
2023/02/10 03:50:14;;;;;;;47.90;26.58;;;1.30;99.90;;;;;;7369447;19;20023;-58
2023/02/10 03:52:40;;;;;;;46.65;24.83;;;1.30;99.90;;;;;;7371512;19;20401;-61
2023/02/10 03:55:07;;;;;;;45.17;23.02;;;1.30;99.90;;;;;;7368445;19;20026;-61
2023/02/10 03:57:33;;;;;;;39.47;23.67;;;1.30;99.90;;;;;;7372967;19;20033;-61
2023/02/10 04:00:00;;;;;;;46.33;25.75;;;1.30;99.90;;;;;;7372761;19;20029;-58
2023/02/10 04:02:26;;;;;;;44.28;23.65;;;1.30;99.90;;;;;;7369543;19;20015;-59
2023/02/10 04:04:52;;;;;;;39.00;24.45;;;1.30;99.90;;;;;;7374377;19;20041;-59
2023/02/10 04:07:18;;;;;;;43.60;23.45;;;1.30;99.90;;;;;;7368840;19;20064;-62
2023/02/10 04:09:45;;;;;;;43.78;23.42;;;1.30;99.90;;;;;;7371169;19;20486;-62
2023/02/10 04:12:14;;;;;;;44.35;22.48;;;1.30;99.90;;;;;;7371529;19;20022;-59
2023/02/10 04:14:40;;;;;;;37.92;22.38;;;1.30;99.90;;;;;;7371860;19;20018;-61
2023/02/10 04:17:09;;;;;;;37.85;22.80;;;1.30;99.90;;;;;;7370316;19;20049;-60
2023/02/10 04:19:36;;;;;;;39.83;21.73;;;1.30;99.90;;;;;;7372269;19;20019;-61
2023/02/10 04:22:02;;;;;;;40.05;21.85;;;1.30;99.90;;;;;;7371988;19;20010;-58
2023/02/10 04:24:29;;;;;;;43.88;23.00;;;1.30;99.90;;;;;;7372802;19;20022;-61
2023/02/10 04:26:55;;;;;;;47.83;22.42;;;1.30;99.90;;;;;;7369942;19;20789;-60
2023/02/10 04:29:22;;;;;;;38.08;21.73;;;1.30;99.90;;;;;;7372958;19;20859;-59
2023/02/10 04:31:48;;;;;;;37.38;21.80;;;1.30;99.90;;;;;;7371518;19;20014;-58
2023/02/10 04:34:14;;;;;;;42.20;21.42;;;1.30;99.90;;;;;;7367920;19;20382;-58
2023/02/10 04:36:41;;;;;;;43.95;21.80;;;1.30;99.90;;;;;;7369450;19;20022;-61
2023/02/10 04:39:07;;;;;;;39.22;21.35;;;1.30;99.90;;;;;;7366286;19;20106;-61
2023/02/10 04:41:34;;;;;;;40.60;20.55;;;1.30;99.90;;;;;;7370636;19;20021;-61
2023/02/10 04:44:00;;;;;;;39.35;20.67;;;1.30;99.90;;;;;;7368705;19;20018;-58
2023/02/10 04:46:26;;;;;;;44.13;21.15;;;1.30;99.90;;;;;;7370193;19;20029;-61
2023/02/10 04:48:52;;;;;;;37.60;19.67;;;1.30;99.90;;;;;;7370867;19;20588;-60
2023/02/10 04:51:19;;;;;;;38.25;19.80;;;1.30;99.90;;;;;;7369640;19;20028;-61
2023/02/10 04:53:47;;;;;;;29.67;19.52;;;1.30;99.90;;;;;;7370870;19;20018;-58
2023/02/10 04:56:14;;;;;;;41.17;21.33;;;1.30;99.90;;;;;;7370270;19;20074;-58
2023/02/10 04:58:41;;;;;;;31.35;19.50;;;1.40;99.90;;;;;;7372310;19;20765;-59
2023/02/10 05:01:07;;;;;;;38.88;20.00;;;1.30;99.90;;;;;;7368474;19;20030;-57
2023/02/10 05:03:34;;;;;;;31.42;17.75;;;1.40;99.90;;;;;;7369975;19;20023;-58
2023/02/10 05:06:09;;;;;;;32.22;19.15;;;1.40;99.90;;;;;;7365736;19;20011;-58
2023/02/10 05:08:40;;;;;;;34.92;19.67;;;1.40;99.90;;;;;;7371329;19;20603;-58
2023/02/10 05:11:11;;;;;;;37.47;18.15;;;1.40;99.90;;;;;;7369398;19;20018;-58
2023/02/10 05:13:38;;;;;;;36.20;17.77;;;1.50;99.90;;;;;;7369023;19;20026;-61
2023/02/10 05:16:04;;;;;;;35.10;17.50;;;1.50;99.90;;;;;;7368672;19;20477;-58
2023/02/10 05:18:31;;;;;;;39.17;17.63;;;1.50;99.90;;;;;;7369347;19;20026;-60
2023/02/10 05:20:58;;;;;;;34.78;17.85;;;1.50;99.90;;;;;;7371153;19;20026;-60
2023/02/10 05:23:25;;;;;;;33.30;17.63;;;1.40;99.90;;;;;;7372105;19;20110;-60
2023/02/10 05:25:51;;;;;;;32.67;18.13;;;1.40;99.90;;;;;;7368755;19;20668;-60
2023/02/10 05:28:18;;;;;;;38.40;18.17;;;1.40;99.90;;;;;;7359376;19;20608;-60
2023/02/10 05:30:46;;;;;;;31.60;16.73;;;1.30;99.90;;;;;;7365479;19;20493;-60
2023/02/10 05:33:12;;;;;;;31.75;16.65;;;1.30;99.90;;;;;;7367704;19;20033;-58
2023/02/10 05:35:38;;;;;;;28.20;16.55;;;1.30;99.90;;;;;;7366357;19;20602;-60
2023/02/10 05:38:04;;;;;;;35.60;18.23;;;1.20;99.90;;;;;;7367989;19;20022;-60
2023/02/10 05:40:31;;;;;;;31.48;17.02;;;1.30;99.90;;;;;;7370195;19;20018;-60
2023/02/10 05:42:58;;;;;;;30.80;17.13;;;1.30;99.90;;;;;;7372735;19;20018;-60
2023/02/10 05:45:25;;;;;;;30.77;16.60;;;1.30;99.90;;;;;;7373389;19;20078;-61
2023/02/10 05:47:51;;;;;;;29.17;16.73;;;1.20;99.90;;;;;;7375120;19;20051;-61
2023/02/10 05:50:18;;;;;;;32.03;17.05;;;1.10;99.90;;;;;;7377799;19;20098;-59
2023/02/10 05:52:45;;;;;;;27.83;15.73;;;1.10;99.90;;;;;;7376009;19;20014;-58
2023/02/10 05:55:11;;;;;;;31.63;17.00;;;1.00;99.90;;;;;;7373818;19;20037;-58
2023/02/10 05:57:37;;;;;;;30.10;16.52;;;1.10;99.90;;;;;;7376948;19;20068;-61
2023/02/10 06:00:06;;;;;;;36.10;17.58;;;1.10;99.90;;;;;;7367056;19;20675;-61
2023/02/10 06:02:38;;;;;;;29.52;18.23;;;1.10;99.90;;;;;;7377123;19;20074;-58
2023/02/10 06:05:05;;;;;;;32.55;18.45;;;1.10;99.90;;;;;;7369349;19;20022;-61
2023/02/10 06:07:32;;;;;;;33.75;17.67;;;1.10;99.90;;;;;;7370465;19;20082;-59
2023/02/10 06:09:58;;;;;;;32.00;18.45;;;1.00;99.90;;;;;;7373781;19;20018;-60
2023/02/10 06:12:24;;;;;;;36.40;18.35;;;1.10;99.90;;;;;;7375063;19;20645;-59
2023/02/10 06:14:51;;;;;;;33.88;18.70;;;1.20;99.90;;;;;;7371268;19;20393;-59
2023/02/10 06:17:18;;;;;;;34.58;19.23;;;1.20;99.90;;;;;;7378020;19;20014;-61
2023/02/10 06:19:44;;;;;;;35.00;20.50;;;1.20;99.90;;;;;;7373587;19;20026;-61
2023/02/10 06:22:10;;;;;;;31.48;18.85;;;1.10;99.90;;;;;;7371818;19;20026;-58
2023/02/10 06:24:37;;;;;;;34.60;18.67;;;1.20;99.90;;;;;;7372369;19;20973;-59
2023/02/10 06:27:03;;;;;;;31.17;18.73;;;1.20;99.90;;;;;;7371720;19;20026;-59
2023/02/10 06:29:29;;;;;;;37.08;19.42;;;1.20;99.90;;;;;;7373327;19;20033;-61
2023/02/10 06:31:55;;;;;;;33.42;18.58;;;1.20;99.90;;;;;;7372608;19;20098;-61
2023/02/10 06:34:21;;;;;;;38.03;19.65;;;1.20;99.90;;;;;;7371646;19;20018;-61
2023/02/10 06:36:48;;;;;;;34.75;20.40;;;1.10;99.90;;;;;;7373483;19;20018;-62
2023/02/10 06:39:14;;;;;;;34.97;20.27;;;1.20;99.90;;;;;;7371616;19;20094;-61
2023/02/10 06:41:41;;;;;;;32.72;19.33;;;1.20;99.90;;;;;;7371706;19;20045;-61
2023/02/10 06:44:08;;;;;;;31.10;19.90;;;1.20;99.90;;;;;;7371581;19;20018;-58
2023/02/10 06:46:35;;;;;;;32.55;21.50;;;1.10;99.90;;;;;;7369444;19;20050;-59
2023/02/10 06:49:02;;;;;;;36.60;21.52;;;1.20;99.90;;;;;;7370943;19;20019;-58
2023/02/10 06:51:28;;;;;;;39.30;22.00;;;1.20;99.90;;;;;;7367552;19;20023;-58
2023/02/10 06:53:55;;;;;;;35.03;21.50;;;1.10;99.90;;;;;;7372543;19;20510;-58
2023/02/10 06:56:21;;;;;;;32.85;21.17;;;1.10;99.90;;;;;;7370722;19;20662;-58
2023/02/10 06:58:47;;;;;;;33.08;21.83;;;1.10;99.90;;;;;;7376646;19;20836;-58
2023/02/10 07:01:17;;;;;;;39.25;23.27;;;1.20;99.90;;;;;;7370764;19;20042;-58
2023/02/10 07:03:44;;;;;;;41.10;23.33;;;1.20;99.90;;;;;;7371159;19;20018;-58
2023/02/10 07:06:10;;;;;;;36.65;24.80;;;1.10;99.90;;;;;;7374809;19;20019;-58
2023/02/10 07:08:37;;;;;;;46.00;24.52;;;1.20;99.90;;;;;;7371181;19;20014;-58
2023/02/10 07:11:03;;;;;;;37.75;24.95;;;1.20;99.90;;;;;;7368391;19;20698;-58
2023/02/10 07:13:29;;;;;;;36.58;24.20;;;1.20;99.90;;;;;;7370284;19;20022;-59
2023/02/10 07:15:56;;;;;;;43.55;27.25;;;1.20;99.90;;;;;;7373749;19;20778;-59
2023/02/10 07:18:22;;;;;;;40.60;27.10;;;1.20;99.90;;;;;;7374064;19;20480;-60
2023/02/10 07:20:48;;;;;;;35.22;24.92;;;1.20;99.90;;;;;;7371830;19;20499;-57
2023/02/10 07:23:15;;;;;;;38.60;26.17;;;1.20;99.90;;;;;;7375504;19;20022;-57
2023/02/10 07:25:41;;;;;;;39.38;24.95;;;1.30;99.90;;;;;;7373876;19;20014;-61
2023/02/10 07:28:08;;;;;;;41.47;25.98;;;1.30;99.90;;;;;;7374212;19;20019;-60
2023/02/10 07:30:34;;;;;;;42.75;26.33;;;1.30;99.90;;;;;;7371327;19;20018;-58
2023/02/10 07:33:02;;;;;;;38.17;25.25;;;1.30;99.90;;;;;;7371810;19;20014;-59
2023/02/10 07:35:28;;;;;;;43.55;25.63;;;1.30;99.90;;;;;;7373292;19;20741;-63
2023/02/10 07:37:54;;;;;;;38.97;26.40;;;1.50;99.90;;;;;;7375954;19;20022;-58
2023/02/10 07:40:21;;;;;;;35.40;25.88;;;1.50;99.90;;;;;;7372331;19;20041;-59
2023/02/10 07:42:47;;;;;;;41.78;26.05;;;1.50;99.90;;;;;;7371300;19;20033;-59
2023/02/10 07:45:32;;;;;;;37.08;24.23;;;1.60;99.90;;;;;;7372934;19;20161;-59
2023/02/10 07:47:59;;;;;;;39.90;25.63;;;1.50;99.90;;;;;;7367033;19;20039;-59
2023/02/10 07:50:26;;;;;;;36.10;24.25;;;1.60;99.90;;;;;;7371533;19;20022;-59
2023/02/10 07:52:52;;;;;;;32.78;24.35;;;1.60;99.90;;;;;;7368759;19;20026;-59
2023/02/10 07:55:19;;;;;;;40.85;24.02;;;1.70;99.90;;;;;;7370366;19;20014;-61
2023/02/10 07:57:46;;;;;;;32.80;24.00;;;1.70;99.90;;;;;;7372984;19;20022;-60
2023/02/10 08:00:13;;;;;;;37.75;23.02;;;1.70;99.90;;;;;;7372885;19;20015;-59
2023/02/10 08:02:39;;;;;;;34.28;23.30;;;1.70;99.90;;;;;;7367172;19;20022;-60
2023/02/10 08:05:06;;;;;;;34.85;23.02;;;1.80;99.90;;;;;;7371062;19;20026;-59
2023/02/10 08:07:32;;;;;;;38.15;21.48;;;1.80;99.90;;;;;;7367010;19;20022;-59
2023/02/10 08:10:01;;;;;;;42.55;22.45;;;1.80;99.90;;;;;;7372482;19;20095;-59
2023/02/10 08:12:28;;;;;;;33.75;21.73;;;2.00;99.90;;;;;;7370688;19;20822;-59
2023/02/10 08:14:57;;;;;;;33.83;21.08;;;2.10;99.90;;;;;;7368911;19;20014;-61
2023/02/10 08:17:24;;;;;;;34.67;20.33;;;2.10;99.90;;;;;;7373840;19;20018;-61
2023/02/10 08:19:50;;;;;;;32.40;19.92;;;2.20;99.90;;;;;;7372002;19;20951;-58
2023/02/10 08:22:16;;;;;;;30.45;19.90;;;2.30;99.90;;;;;;7371947;19;20029;-60
2023/02/10 08:24:43;;;;;;;31.20;20.05;;;2.40;99.90;;;;;;7371583;19;20049;-59
2023/02/10 08:27:09;;;;;;;31.77;20.10;;;2.60;99.90;;;;;;7370710;19;20106;-59
2023/02/10 08:29:35;;;;;;;29.45;19.85;;;2.70;99.90;;;;;;7372542;19;20010;-59
2023/02/10 08:32:02;;;;;;;30.05;19.45;;;2.90;99.90;;;;;;7369823;19;20068;-59
2023/02/10 08:34:28;;;;;;;27.83;18.85;;;3.00;99.90;;;;;;7372023;19;20038;-59
2023/02/10 08:36:55;;;;;;;26.27;18.00;;;3.30;99.90;;;;;;7372635;19;20892;-59
2023/02/10 08:39:21;;;;;;;27.75;18.40;;;3.50;99.90;;;;;;7368795;19;20022;-60
2023/02/10 08:41:48;;;;;;;33.38;19.98;;;3.70;99.90;;;;;;7365991;19;20022;-59
2023/02/10 08:44:14;;;;;;;27.42;18.58;;;3.90;99.90;;;;;;7370897;19;20022;-60
2023/02/10 08:46:41;;;;;;;27.65;18.80;;;4.30;99.90;;;;;;7370664;19;20016;-62
2023/02/10 08:49:08;;;;;;;28.95;17.63;;;4.60;99.90;;;;;;7367422;19;20022;-61
2023/02/10 08:51:34;;;;;;;24.00;17.15;;;5.00;99.90;;;;;;7362561;19;20727;-62
2023/02/10 08:54:01;;;;;;;24.95;16.63;;;5.40;99.90;;;;;;7367426;19;20015;-62
2023/02/10 08:56:27;;;;;;;25.50;18.25;;;5.60;99.90;;;;;;7370628;19;20029;-62
2023/02/10 08:58:54;;;;;;;24.65;17.10;;;5.50;99.90;;;;;;7368494;19;20373;-62
2023/02/10 09:01:25;;;;;;;26.85;16.83;;;5.40;99.90;;;;;;7364426;19;20622;-61
2023/02/10 09:03:52;;;;;;;30.20;18.77;;;5.10;99.90;;;;;;7371706;19;20023;-59
2023/02/10 09:06:26;;;;;;;24.75;17.30;;;4.90;99.90;;;;;;7372282;19;20014;-61
2023/02/10 09:08:54;;;;;;;27.73;18.52;;;4.70;99.90;;;;;;7369114;19;20021;-59
2023/02/10 09:11:23;;;;;;;29.33;18.88;;;4.50;99.90;;;;;;7369012;19;20508;-60
2023/02/10 09:13:50;;;;;;;25.65;17.27;;;4.40;99.90;;;;;;7370198;19;20026;-62
2023/02/10 09:16:17;;;;;;;27.77;18.65;;;4.40;99.90;;;;;;7367384;19;20015;-60
2023/02/10 09:18:43;;;;;;;21.83;15.82;;;5.00;99.90;;;;;;7375030;19;20015;-60
2023/02/10 09:21:10;;;;;;;30.48;17.73;;;5.60;99.90;;;;;;7376608;19;20102;-63
2023/02/10 09:23:36;;;;;;;26.13;16.77;;;6.20;99.90;;;;;;7377957;19;20014;-63
2023/02/10 09:26:03;;;;;;;25.45;16.52;;;6.80;99.90;;;;;;7375679;19;20894;-62
2023/02/10 09:28:29;;;;;;;23.02;16.25;;;7.30;99.90;;;;;;7371972;19;20026;-62
2023/02/10 09:30:56;;;;;;;24.50;16.13;;;7.00;99.90;;;;;;7375569;19;20006;-62
2023/02/10 09:33:22;;;;;;;26.92;17.60;;;6.60;99.90;;;;;;7378315;19;20474;-62
2023/02/10 09:35:48;;;;;;;25.35;16.20;;;6.20;99.90;;;;;;7377105;19;20021;-60
2023/02/10 09:38:15;;;;;;;25.88;17.90;;;5.90;99.90;;;;;;7378738;19;20018;-62
2023/02/10 09:41:03;;;;;;;24.55;17.58;;;5.70;99.90;;;;;;7373305;19;20018;-60
2023/02/10 09:43:50;;;;;;;26.17;16.67;;;6.10;99.90;;;;;;7380554;19;20048;-62
2023/02/10 09:47:01;;;;;;;24.90;16.27;;;6.70;99.90;;;;;;7377161;19;20736;-60
2023/02/10 09:49:47;;;;;;;23.77;16.10;;;7.10;99.90;;;;;;7370083;19;20090;-62
2023/02/10 09:52:16;;;;;;;25.67;16.67;;;7.40;99.90;;;;;;7376278;19;20025;-60
2023/02/10 09:54:43;;;;;;;25.65;17.55;;;8.10;99.90;;;;;;7374267;19;20019;-61
2023/02/10 09:57:22;;;;;;;24.05;16.75;;;8.50;99.90;;;;;;7374134;19;20033;-62
2023/02/10 09:59:51;;;;;;;23.77;15.15;;;9.10;99.90;;;;;;7374484;19;20035;-63
2023/02/10 10:02:41;;;;;;;23.88;16.13;;;9.20;99.90;;;;;;7373526;19;20077;-60
2023/02/10 10:05:43;;;;;;;25.10;15.15;;;9.20;99.90;;;;;;7379028;19;20029;-61
2023/02/10 10:08:18;;;;;;;25.70;17.07;;;9.10;99.90;;;;;;7371023;19;20759;-60
2023/02/10 10:10:46;;;;;;;25.92;15.60;;;8.70;99.90;;;;;;7372744;19;20680;-60
2023/02/10 10:13:22;;;;;;;25.45;16.20;;;8.90;99.90;;;;;;7372347;19;20029;-63
2023/02/10 10:16:24;;;;;;;82.68;60.03;;;9.30;99.90;;;;;;7376119;19;20066;-51
2023/02/10 10:19:15;;;;;;;21.15;15.48;;;9.70;99.90;;;;;;7375834;19;20548;-62
2023/02/10 10:21:55;;;;;;;24.23;15.75;;;9.50;99.90;;;;;;7376119;19;20373;-62
2023/02/10 10:24:43;;;;;;;23.38;15.45;;;9.80;99.90;;;;;;7373678;19;20026;-62
2023/02/10 10:27:50;;;;;;;27.50;15.77;;;9.50;99.90;;;;;;7375835;19;20018;-61
2023/02/10 10:30:19;;;;;;;25.13;15.77;;;9.70;99.90;;;;;;7370883;19;20045;-60
2023/02/10 10:32:50;;;;;;;22.92;15.75;;;9.40;99.90;;;;;;7374476;19;20018;-60
2023/02/10 10:35:20;;;;;;;23.98;15.15;;;9.70;99.90;;;;;;7371612;19;20046;-61
2023/02/10 10:37:47;;;;;;;24.75;15.13;;;9.50;99.90;;;;;;7375932;19;20033;-60
2023/02/10 10:40:22;;;;;;;25.90;15.18;;;9.90;99.90;;;;;;7373766;19;20015;-61
2023/02/10 10:42:59;;;;;;;27.10;16.55;;;9.90;99.90;;;;;;7376307;19;20045;-62
2023/02/10 10:45:35;;;;;;;26.67;14.48;;;10.00;99.90;;;;;;7375092;19;20022;-61
2023/02/10 10:48:26;;;;;;;26.63;15.57;;;10.20;99.90;;;;;;7374675;19;20022;-62
2023/02/10 10:51:00;;;;;;;20.75;14.68;;;10.50;99.90;;;;;;7376340;19;20480;-61
2023/02/10 10:53:43;;;;;;;21.40;13.85;;;10.50;99.90;;;;;;7374916;19;20047;-61
2023/02/10 10:56:35;;;;;;;22.50;14.48;;;10.30;99.90;;;;;;7375429;19;20040;-62
2023/02/10 10:59:40;;;;;;;39.13;25.13;;;10.40;99.90;;;;;;7373283;19;20117;-46
2023/02/10 11:02:12;;;;;;;22.42;14.30;;;10.80;99.90;;;;;;7373320;19;20022;-60
2023/02/10 11:04:42;;;;;;;81.63;59.10;;;11.00;99.90;;;;;;7374378;19;20033;-52
2023/02/10 11:07:17;;;;;;;25.33;14.32;;;11.00;99.90;;;;;;7376881;19;20022;-59
2023/02/10 11:09:52;;;;;;;20.42;12.13;;;11.00;99.90;;;;;;7375632;19;20022;-63
2023/02/10 11:12:39;;;;;;;22.92;13.00;;;11.40;99.90;;;;;;7376508;19;20018;-63
2023/02/10 11:15:23;;;;;;;22.38;12.20;;;10.90;99.90;;;;;;7373369;19;20031;-61
2023/02/10 11:17:50;;;;;;;22.38;12.57;;;10.90;99.90;;;;;;7377229;19;20049;-63
2023/02/10 11:20:23;;;;;;;20.42;11.88;;;11.00;99.90;;;;;;7370207;19;20029;-61
2023/02/10 11:23:10;;;;;;;20.88;12.10;;;11.50;99.90;;;;;;7376637;19;20041;-61
2023/02/10 11:25:37;;;;;;;24.15;11.55;;;12.10;99.90;;;;;;7373562;19;20021;-61
2023/02/10 11:28:06;;;;;;;22.80;12.00;;;11.90;99.90;;;;;;7374535;19;20018;-62
2023/02/10 11:30:36;;;;;;;19.25;10.63;;;12.60;99.90;;;;;;7373643;19;20022;-63
2023/02/10 11:33:05;;;;;;;20.33;11.00;;;13.00;99.90;;;;;;7373163;19;20026;-62
2023/02/10 11:35:32;;;;;;;20.25;10.07;;;12.40;99.90;;;;;;7373257;19;20063;-61
2023/02/10 11:38:05;;;;;;;20.92;10.10;;;12.40;99.90;;;;;;7373493;19;20014;-60
2023/02/10 11:40:54;;;;;;;18.13;9.50;;;12.30;99.90;;;;;;7375892;19;20015;-60
2023/02/10 11:43:28;;;;;;;18.58;10.40;;;12.10;99.90;;;;;;7372556;19;20014;-61
2023/02/10 11:46:09;;;;;;;16.90;10.45;;;12.30;99.90;;;;;;7370686;19;20022;-60
2023/02/10 11:48:38;;;;;;;19.85;9.85;;;12.00;99.90;;;;;;7373457;19;20560;-61
2023/02/10 11:51:18;;;;;;;19.73;10.43;;;12.30;99.90;;;;;;7371623;19;20028;-62
2023/02/10 11:53:46;;;;;;;23.92;10.77;;;12.30;99.90;;;;;;7371631;19;20916;-60
2023/02/10 11:59:27;;;;;;;18.85;9.13;;;12.20;99.90;;;;;;7367874;19;20018;-62
2023/02/10 12:01:56;;;;;;;18.48;9.70;;;11.50;99.90;;;;;;7373890;19;20369;-61
2023/02/10 12:04:53;;;;;;;15.05;9.02;;;12.50;99.90;;;;;;7371661;19;20023;-61
2023/02/10 12:07:34;;;;;;;18.92;9.00;;;12.60;99.90;;;;;;7373404;19;20370;-62
2023/02/10 12:10:27;;;;;;;16.88;8.52;;;12.60;99.90;;;;;;7371858;19;20022;-61
2023/02/10 12:13:15;;;;;;;20.45;8.35;;;12.80;99.90;;;;;;7372318;19;20034;-60
2023/02/10 12:15:48;;;;;;;14.70;8.07;;;12.70;99.90;;;;;;7370815;19;20025;-61
2023/02/10 12:18:17;;;;;;;20.95;8.52;;;13.00;99.90;;;;;;7372873;19;20023;-60
2023/02/10 12:20:59;;;;;;;17.25;7.70;;;12.50;99.90;;;;;;7374590;19;20430;-60
2023/02/10 12:23:48;;;;;;;20.67;9.07;;;13.10;99.90;;;;;;7372905;19;20022;-61
2023/02/10 12:26:29;;;;;;;16.30;7.47;;;13.10;99.90;;;;;;7369913;19;20026;-61
2023/02/10 12:29:36;;;;;;;20.40;7.35;;;13.10;99.90;;;;;;7372238;19;20046;-61
2023/02/10 12:32:27;;;;;;;16.25;6.85;;;12.90;99.90;;;;;;7369637;19;20082;-61
2023/02/10 12:35:30;;;;;;;16.67;7.50;;;12.40;99.90;;;;;;7369607;19;20018;-61
2023/02/10 12:38:16;;;;;;;13.85;6.40;;;12.40;99.90;;;;;;7367848;19;20301;-61
2023/02/10 12:40:48;;;;;;;14.80;7.25;;;12.10;99.90;;;;;;7369359;19;20022;-61
2023/02/10 12:43:33;;;;;;;14.25;6.65;;;12.30;99.90;;;;;;7369209;19;20022;-61
2023/02/10 12:46:24;;;;;;;14.77;6.72;;;12.00;99.90;;;;;;7370296;19;20026;-61
2023/02/10 12:49:02;;;;;;;20.70;7.73;;;12.00;99.90;;;;;;7363295;19;20022;-62
2023/02/10 12:51:58;;;;;;;18.50;7.38;;;12.40;99.90;;;;;;7369620;19;20768;-60
2023/02/10 12:54:39;;;;;;;14.57;7.40;;;12.50;99.90;;;;;;7364541;19;20476;-61
2023/02/10 12:57:24;;;;;;;17.83;6.97;;;12.50;99.90;;;;;;7368417;19;20383;-61
2023/02/10 12:59:59;;;;;;;13.07;6.93;;;11.30;99.90;;;;;;7372146;19;20028;-61